createdAt,value
2019-03-24T00:00:33.622Z,81.90
2019-03-24T00:03:02.326Z,81.90
2019-03-24T00:05:36.383Z,82.00
2019-03-24T00:08:05.207Z,82.90
2019-03-24T00:10:33.664Z,82.10
2019-03-24T00:13:02.195Z,81.90
2019-03-24T00:15:32.296Z,82.00
2019-03-24T00:18:01.512Z,82.20
2019-03-24T00:20:30.004Z,82.20
2019-03-24T00:22:58.473Z,82.30
2019-03-24T00:25:26.937Z,82.30
2019-03-24T00:27:57.087Z,82.20
2019-03-24T00:30:25.653Z,82.20
2019-03-24T00:32:55.752Z,82.20
2019-03-24T00:35:24.385Z,82.20
2019-03-24T00:37:52.998Z,82.30
2019-03-24T00:40:21.536Z,81.80
2019-03-24T00:42:51.616Z,82.20
2019-03-24T00:45:20.169Z,82.30
2019-03-24T00:47:50.079Z,82.30
2019-03-24T00:50:20.578Z,82.40
2019-03-24T00:52:48.787Z,82.40
2019-03-24T00:55:17.262Z,82.50
2019-03-24T00:57:46.905Z,82.60
2019-03-24T01:00:17.771Z,82.60
2019-03-24T01:02:47.721Z,82.60
2019-03-24T01:05:16.295Z,82.70
2019-03-24T01:07:44.927Z,82.60
2019-03-24T01:10:13.542Z,82.80
2019-03-24T01:12:45.016Z,82.80
2019-03-24T01:15:13.591Z,82.90
2019-03-24T01:17:42.235Z,82.90
2019-03-24T01:20:12.084Z,83.00
2019-03-24T01:22:40.553Z,83.10
2019-03-24T01:25:09.207Z,83.00
2019-03-24T01:27:39.855Z,83.10
2019-03-24T01:30:09.290Z,83.20
2019-03-24T01:32:37.939Z,83.20
2019-03-24T01:35:07.449Z,83.30
2019-03-24T01:37:35.968Z,83.30
2019-03-24T01:40:08.142Z,83.40
2019-03-24T01:42:36.738Z,83.40
2019-03-24T01:45:09.108Z,83.30
2019-03-24T01:47:38.921Z,83.30
2019-03-24T01:50:08.953Z,83.30
2019-03-24T01:52:39.058Z,83.30
2019-03-24T01:55:09.358Z,83.40
2019-03-24T01:57:38.891Z,83.30
2019-03-24T02:00:09.591Z,84.00
2019-03-24T02:02:38.119Z,83.40
2019-03-24T02:05:09.503Z,83.50
2019-03-24T02:07:43.389Z,83.70
2019-03-24T02:10:13.480Z,83.80
2019-03-24T02:12:42.307Z,83.70
2019-03-24T02:15:13.109Z,83.70
2019-03-24T02:17:41.588Z,83.40
2019-03-24T02:20:10.502Z,84.10
2019-03-24T02:22:40.585Z,83.20
2019-03-24T02:25:09.280Z,83.10
2019-03-24T02:27:37.839Z,83.30
2019-03-24T02:30:08.853Z,83.20
2019-03-24T02:32:43.468Z,83.30
2019-03-24T02:35:12.105Z,83.40
2019-03-24T02:37:40.611Z,83.30
2019-03-24T02:40:09.987Z,83.40
2019-03-24T02:42:42.535Z,84.10
2019-03-24T02:45:11.528Z,83.50
2019-03-24T02:47:43.131Z,83.50
2019-03-24T02:50:11.754Z,83.50
2019-03-24T02:52:41.607Z,83.50
2019-03-24T02:55:10.419Z,83.70
2019-03-24T02:57:41.796Z,83.90
2019-03-24T03:00:10.805Z,84.00
2019-03-24T03:02:40.888Z,84.10
2019-03-24T03:05:11.707Z,84.10
2019-03-24T03:07:40.500Z,84.10
2019-03-24T03:10:11.121Z,84.10
2019-03-24T03:12:41.149Z,84.20
2019-03-24T03:15:10.617Z,84.10
2019-03-24T03:17:41.502Z,84.20
2019-03-24T03:20:13.062Z,84.30
2019-03-24T03:22:41.690Z,84.30
2019-03-24T03:25:11.500Z,84.00
2019-03-24T03:27:40.420Z,83.80
2019-03-24T03:30:10.183Z,84.70
2019-03-24T03:32:40.223Z,84.00
2019-03-24T03:35:09.268Z,84.10
2019-03-24T03:37:37.814Z,84.20
2019-03-24T03:40:08.614Z,84.20
2019-03-24T03:42:39.067Z,84.30
2019-03-24T03:45:10.242Z,84.30
2019-03-24T03:47:39.842Z,84.30
2019-03-24T03:50:08.354Z,84.30
2019-03-24T03:52:38.181Z,84.40
2019-03-24T03:55:06.856Z,84.10
2019-03-24T03:57:35.410Z,83.90
2019-03-24T04:00:08.152Z,83.70
2019-03-24T04:02:38.141Z,83.80
2019-03-24T04:05:10.912Z,84.10
2019-03-24T04:07:39.380Z,84.20
2019-03-24T04:10:08.368Z,84.40
2019-03-24T04:12:36.832Z,84.60
2019-03-24T04:15:08.145Z,84.40
2019-03-24T04:17:38.716Z,84.50
2019-03-24T04:20:07.335Z,84.70
2019-03-24T04:22:35.890Z,84.90
2019-03-24T04:25:06.999Z,85.10
2019-03-24T04:27:35.591Z,85.30
2019-03-24T04:30:06.837Z,85.40
2019-03-24T04:32:35.353Z,85.40
2019-03-24T04:35:09.085Z,85.40
2019-03-24T04:37:37.786Z,85.50
2019-03-24T04:40:11.663Z,85.60
2019-03-24T04:42:42.532Z,85.70
2019-03-24T04:45:11.282Z,85.70
2019-03-24T04:47:42.139Z,85.70
2019-03-24T04:50:11.139Z,85.80
2019-03-24T04:52:41.168Z,85.80
2019-03-24T04:55:10.057Z,85.80
2019-03-24T04:57:39.170Z,85.80
2019-03-24T05:00:11.041Z,85.80
2019-03-24T05:02:39.645Z,85.80
2019-03-24T05:05:09.308Z,85.80
2019-03-24T05:07:38.647Z,85.90
2019-03-24T05:10:08.920Z,86.40
2019-03-24T05:12:37.393Z,85.80
2019-03-24T05:15:06.565Z,85.80
2019-03-24T05:17:35.117Z,85.80
2019-03-24T05:20:06.630Z,85.80
2019-03-24T05:22:37.403Z,85.90
2019-03-24T05:25:06.610Z,85.80
2019-03-24T05:27:35.066Z,85.80
2019-03-24T05:30:10.280Z,85.80
2019-03-24T05:32:38.867Z,85.80
2019-03-24T05:35:07.986Z,85.90
2019-03-24T05:37:36.580Z,85.90
2019-03-24T05:40:05.989Z,85.80
2019-03-24T05:42:34.532Z,85.70
2019-03-24T05:45:04.084Z,85.70
2019-03-24T05:47:37.158Z,85.40
2019-03-24T05:50:04.383Z,85.20
2019-03-24T05:52:32.864Z,85.00
2019-03-24T05:55:01.414Z,84.70
2019-03-24T05:57:31.398Z,84.90
2019-03-24T05:59:59.881Z,84.90
2019-03-24T06:02:28.333Z,84.90
2019-03-24T06:04:56.806Z,85.00
2019-03-24T06:07:25.276Z,85.00
2019-03-24T06:09:55.393Z,85.10
2019-03-24T06:12:25.105Z,85.20
2019-03-24T06:14:53.977Z,85.20
2019-03-24T06:17:22.449Z,85.30
2019-03-24T06:19:51.010Z,85.40
2019-03-24T06:22:19.553Z,85.40
2019-03-24T06:24:48.036Z,85.60
2019-03-24T06:27:16.498Z,85.50
2019-03-24T06:29:48.575Z,85.60
2019-03-24T06:32:19.713Z,85.60
2019-03-24T06:34:48.228Z,85.70
2019-03-24T06:37:16.687Z,85.90
2019-03-24T06:39:46.874Z,85.90
2019-03-24T06:42:17.986Z,85.80
2019-03-24T06:44:47.734Z,85.80
2019-03-24T06:47:16.269Z,85.80
2019-03-24T06:49:44.762Z,85.90
2019-03-24T06:52:18.823Z,86.20
2019-03-24T06:54:47.460Z,86.50
2019-03-24T06:57:16.996Z,86.40
2019-03-24T06:59:45.668Z,86.70
2019-03-24T07:02:14.769Z,86.70
2019-03-24T07:04:43.352Z,86.90
2019-03-24T07:07:12.135Z,86.90
2019-03-24T07:09:40.639Z,86.90
2019-03-24T07:12:09.139Z,87.00
2019-03-24T07:14:38.067Z,87.00
2019-03-24T07:17:06.586Z,87.10
2019-03-24T07:19:35.058Z,87.10
2019-03-24T07:22:04.647Z,87.10
2019-03-24T07:24:33.133Z,87.00
2019-03-24T07:27:01.970Z,86.90
2019-03-24T07:29:30.488Z,86.80
2019-03-24T07:31:58.969Z,86.70
2019-03-24T07:34:31.011Z,86.70
2019-03-24T07:37:03.963Z,86.60
2019-03-24T07:39:32.534Z,86.70
2019-03-24T07:42:01.401Z,86.70
2019-03-24T07:44:29.855Z,86.60
2019-03-24T07:46:58.319Z,86.50
2019-03-24T07:49:27.327Z,86.50
2019-03-24T07:51:57.411Z,86.50
2019-03-24T07:54:27.402Z,86.50
2019-03-24T07:56:57.009Z,86.40
2019-03-24T07:59:26.025Z,86.30
2019-03-24T08:01:55.222Z,86.10
2019-03-24T08:04:26.331Z,85.90
2019-03-24T08:07:01.090Z,85.90
2019-03-24T08:09:37.181Z,85.60
2019-03-24T08:12:05.397Z,85.20
2019-03-24T08:14:34.158Z,85.20
2019-03-24T08:17:02.772Z,85.00
2019-03-24T08:19:34.455Z,84.70
2019-03-24T08:22:02.777Z,84.20
2019-03-24T08:24:31.346Z,83.80
2019-03-24T08:26:59.900Z,83.20
2019-03-24T08:29:28.420Z,82.80
2019-03-24T08:31:57.937Z,82.40
2019-03-24T08:34:26.444Z,82.00
2019-03-24T08:36:55.200Z,81.60
2019-03-24T08:39:38.639Z,81.20
2019-03-24T08:42:07.097Z,80.60
2019-03-24T08:44:35.536Z,79.90
2019-03-24T08:47:05.022Z,79.20
2019-03-24T08:49:36.178Z,78.60
2019-03-24T08:52:06.100Z,77.90
2019-03-24T08:54:34.592Z,77.40
2019-03-24T08:57:03.154Z,76.80
2019-03-24T08:59:31.603Z,76.20
2019-03-24T09:02:00.111Z,75.40
2019-03-24T09:04:28.647Z,74.50
2019-03-24T09:06:59.707Z,73.80
2019-03-24T09:09:28.304Z,73.40
2019-03-24T09:11:59.274Z,73.30
2019-03-24T09:14:27.767Z,73.20
2019-03-24T09:16:59.023Z,72.90
2019-03-24T09:19:27.491Z,72.80
2019-03-24T09:21:57.740Z,73.30
2019-03-24T09:24:29.431Z,72.00
2019-03-24T09:26:59.580Z,71.80
2019-03-24T09:29:31.669Z,71.10
2019-03-24T09:32:00.968Z,70.60
2019-03-24T09:34:31.848Z,70.30
2019-03-24T09:37:02.659Z,70.70
2019-03-24T09:39:32.809Z,69.20
2019-03-24T09:42:02.155Z,68.90
2019-03-24T09:44:32.167Z,68.50
2019-03-24T09:47:02.279Z,68.50
2019-03-24T09:49:31.849Z,68.50
2019-03-24T09:52:01.857Z,68.10
2019-03-24T09:54:30.357Z,67.80
2019-03-24T09:57:01.785Z,67.40
2019-03-24T09:59:31.774Z,67.30
2019-03-24T10:02:00.306Z,67.20
2019-03-24T10:04:28.831Z,67.20
2019-03-24T10:06:59.531Z,67.20
2019-03-24T10:09:29.576Z,66.90
2019-03-24T10:11:58.145Z,66.40
2019-03-24T10:14:27.381Z,65.60
2019-03-24T10:16:55.945Z,65.50
2019-03-24T10:19:29.576Z,66.10
2019-03-24T10:21:58.118Z,65.30
2019-03-24T10:24:26.579Z,65.20
2019-03-24T10:26:55.083Z,64.60
2019-03-24T10:29:25.072Z,64.50
2019-03-24T10:31:55.292Z,64.50
2019-03-24T10:34:23.867Z,64.20
2019-03-24T10:36:52.928Z,63.70
2019-03-24T10:39:22.037Z,64.30
2019-03-24T10:41:50.563Z,63.80
2019-03-24T10:44:20.550Z,63.30
2019-03-24T10:46:51.894Z,63.40
2019-03-24T10:49:25.061Z,63.60
2019-03-24T10:51:52.912Z,63.40
2019-03-24T10:54:21.381Z,63.50
2019-03-24T10:56:51.742Z,62.70
2019-03-24T10:59:25.465Z,62.50
2019-03-24T11:01:54.005Z,61.70
2019-03-24T11:04:22.456Z,60.90
2019-03-24T11:06:51.570Z,61.00
2019-03-24T11:09:20.276Z,59.30
2019-03-24T11:11:48.725Z,58.80
2019-03-24T11:14:17.323Z,57.90
2019-03-24T11:16:46.024Z,57.10
2019-03-24T11:19:19.540Z,56.30
2019-03-24T11:21:48.052Z,56.60
2019-03-24T11:24:16.603Z,56.70
2019-03-24T11:26:45.072Z,56.90
2019-03-24T11:29:13.619Z,56.20
2019-03-24T11:31:42.106Z,56.50
2019-03-24T11:34:11.165Z,56.10
2019-03-24T11:36:39.641Z,56.00
2019-03-24T11:39:08.792Z,55.10
2019-03-24T11:41:38.750Z,53.80
2019-03-24T11:44:11.102Z,53.90
2019-03-24T11:46:40.170Z,54.60
2019-03-24T11:49:15.688Z,55.30
2019-03-24T11:51:48.244Z,55.70
2019-03-24T11:54:19.303Z,55.70
2019-03-24T11:56:50.660Z,55.90
2019-03-24T11:59:20.571Z,56.20
2019-03-24T12:01:49.113Z,56.40
2019-03-24T12:04:17.587Z,56.60
2019-03-24T12:06:46.043Z,56.90
2019-03-24T12:09:15.088Z,56.30
2019-03-24T12:11:43.691Z,54.20
2019-03-24T12:14:12.161Z,53.00
2019-03-24T12:16:40.607Z,52.60
2019-03-24T12:19:09.092Z,52.50
2019-03-24T12:21:40.304Z,51.90
2019-03-24T12:24:12.078Z,51.70
2019-03-24T12:26:40.401Z,51.00
2019-03-24T12:29:11.338Z,52.20
2019-03-24T12:31:40.674Z,51.60
2019-03-24T12:34:10.924Z,52.00
2019-03-24T12:36:39.439Z,52.60
2019-03-24T12:39:08.642Z,53.00
2019-03-24T12:41:37.112Z,53.30
2019-03-24T12:44:05.642Z,53.30
2019-03-24T12:46:34.122Z,53.10
2019-03-24T12:49:02.597Z,52.70
2019-03-24T12:51:31.125Z,52.80
2019-03-24T12:54:00.357Z,52.90
2019-03-24T12:56:28.958Z,52.50
2019-03-24T12:58:57.437Z,51.90
2019-03-24T13:01:27.300Z,51.90
2019-03-24T13:03:58.289Z,51.70
2019-03-24T13:06:26.803Z,51.80
2019-03-24T13:08:55.523Z,51.50
2019-03-24T13:11:23.996Z,51.50
2019-03-24T13:13:52.453Z,51.50
2019-03-24T13:16:20.927Z,51.60
2019-03-24T13:18:49.665Z,50.90
2019-03-24T13:21:18.195Z,50.80
2019-03-24T13:23:46.728Z,50.60
2019-03-24T13:26:15.177Z,49.00
2019-03-24T13:28:43.723Z,49.70
2019-03-24T13:31:12.283Z,49.80
2019-03-24T13:33:42.276Z,49.40
2019-03-24T13:36:12.641Z,48.80
2019-03-24T13:38:41.321Z,49.10
2019-03-24T13:41:09.767Z,49.10
2019-03-24T13:43:40.316Z,48.10
2019-03-24T13:46:08.854Z,47.70
2019-03-24T13:48:40.434Z,47.90
2019-03-24T13:51:08.899Z,47.40
2019-03-24T13:53:37.377Z,47.20
2019-03-24T13:56:08.883Z,47.00
2019-03-24T13:58:38.343Z,46.70
2019-03-24T14:01:07.598Z,47.30
2019-03-24T14:03:37.286Z,47.60
2019-03-24T14:06:05.767Z,47.80
2019-03-24T14:08:36.713Z,46.30
2019-03-24T14:11:05.921Z,45.90
2019-03-24T14:13:36.822Z,46.30
2019-03-24T14:16:08.292Z,46.40
2019-03-24T14:18:38.283Z,45.70
2019-03-24T14:21:06.824Z,45.80
2019-03-24T14:23:35.675Z,46.70
2019-03-24T14:26:04.807Z,46.20
2019-03-24T14:28:33.260Z,46.20
2019-03-24T14:31:01.719Z,46.40
2019-03-24T14:33:30.197Z,46.60
2019-03-24T14:35:58.948Z,45.90
2019-03-24T14:38:29.683Z,44.50
2019-03-24T14:40:58.984Z,43.90
2019-03-24T14:43:27.511Z,43.00
2019-03-24T14:45:58.409Z,43.30
2019-03-24T14:48:26.936Z,42.70
2019-03-24T14:50:55.672Z,42.60
2019-03-24T14:53:24.139Z,43.00
2019-03-24T14:55:52.771Z,42.50
2019-03-24T14:58:21.966Z,41.90
2019-03-24T15:00:51.489Z,41.40
2019-03-24T15:03:20.067Z,41.90
2019-03-24T15:05:48.523Z,41.30
2019-03-24T15:08:17.587Z,40.00
2019-03-24T15:10:46.042Z,39.70
2019-03-24T15:13:16.016Z,39.10
2019-03-24T15:15:45.729Z,38.20
2019-03-24T15:18:15.886Z,37.40
2019-03-24T15:20:44.416Z,36.50
2019-03-24T15:23:13.034Z,36.80
2019-03-24T15:25:41.586Z,35.50
2019-03-24T15:28:10.135Z,34.80
2019-03-24T15:30:38.748Z,34.00
2019-03-24T15:33:07.353Z,34.20
2019-03-24T15:35:37.690Z,33.90
2019-03-24T15:38:08.837Z,33.80
2019-03-24T15:40:36.725Z,33.20
2019-03-24T15:43:05.211Z,32.80
2019-03-24T15:45:33.752Z,32.80
2019-03-24T15:48:04.298Z,32.90
2019-03-24T15:50:33.011Z,32.90
2019-03-24T15:53:02.018Z,32.60
2019-03-24T15:55:30.640Z,32.10
2019-03-24T15:58:00.476Z,31.90
2019-03-24T16:00:40.091Z,32.00
2019-03-24T16:03:08.548Z,32.20
2019-03-24T16:05:37.006Z,32.10
2019-03-24T16:08:05.566Z,32.20
2019-03-24T16:10:35.412Z,32.20
2019-03-24T16:13:05.818Z,31.70
2019-03-24T16:15:34.372Z,31.70
2019-03-24T16:18:03.075Z,31.30
2019-03-24T16:20:31.638Z,30.90
2019-03-24T16:23:00.130Z,30.80
2019-03-24T16:25:28.659Z,30.80
2019-03-24T16:27:57.925Z,31.00
2019-03-24T16:30:26.538Z,31.20
2019-03-24T16:32:55.228Z,31.10
2019-03-24T16:35:23.950Z,31.40
2019-03-24T16:37:52.756Z,31.50
2019-03-24T16:40:21.405Z,32.20
2019-03-24T16:42:50.851Z,32.60
2019-03-24T16:45:19.410Z,32.70
2019-03-24T16:47:48.213Z,33.10
2019-03-24T16:50:18.337Z,33.60
2019-03-24T16:52:46.871Z,33.90
2019-03-24T16:55:15.416Z,33.90
2019-03-24T16:57:44.138Z,34.30
2019-03-24T17:00:12.991Z,34.70
2019-03-24T17:02:44.023Z,35.60
2019-03-24T17:05:12.714Z,36.30
2019-03-24T17:07:41.369Z,36.30
2019-03-24T17:10:11.863Z,36.70
2019-03-24T17:12:40.505Z,36.70
2019-03-24T17:15:11.444Z,36.90
2019-03-24T17:17:41.289Z,36.80
2019-03-24T17:20:10.029Z,37.00
2019-03-24T17:22:38.575Z,37.20
2019-03-24T17:25:10.234Z,37.70
2019-03-24T17:27:40.994Z,38.70
2019-03-24T17:30:12.056Z,39.80
2019-03-24T17:32:40.571Z,40.50
2019-03-24T17:35:10.179Z,41.50
2019-03-24T17:37:38.730Z,42.10
2019-03-24T17:40:08.997Z,43.00
2019-03-24T17:42:37.528Z,43.60
2019-03-24T17:45:13.434Z,43.90
2019-03-24T17:47:42.992Z,44.90
2019-03-24T17:50:12.307Z,45.80
2019-03-24T17:52:40.802Z,45.70
2019-03-24T17:55:09.990Z,46.00
2019-03-24T17:57:43.533Z,46.60
2019-03-24T18:00:16.379Z,47.30
2019-03-24T18:02:44.939Z,48.20
2019-03-24T18:05:16.041Z,48.50
2019-03-24T18:07:44.747Z,49.30
2019-03-24T18:10:16.254Z,50.10
2019-03-24T18:12:44.827Z,50.90
2019-03-24T18:15:14.097Z,51.90
2019-03-24T18:17:42.807Z,52.40
2019-03-24T18:20:11.778Z,52.70
2019-03-24T18:22:40.421Z,52.90
2019-03-24T18:25:09.450Z,53.40
2019-03-24T18:27:39.027Z,53.60
2019-03-24T18:30:10.134Z,54.40
2019-03-24T18:32:38.874Z,54.90
2019-03-24T18:35:09.275Z,54.80
2019-03-24T18:37:37.834Z,54.80
2019-03-24T18:40:09.291Z,54.90
2019-03-24T18:42:39.675Z,55.30
2019-03-24T18:45:11.144Z,55.40
2019-03-24T18:47:39.789Z,55.90
2019-03-24T18:50:10.582Z,56.60
2019-03-24T18:52:39.206Z,56.80
2019-03-24T18:55:13.860Z,57.70
2019-03-24T18:57:42.450Z,57.80
2019-03-24T19:00:13.078Z,57.90
2019-03-24T19:02:44.854Z,58.30
2019-03-24T19:05:13.832Z,58.50
2019-03-24T19:07:44.541Z,59.10
2019-03-24T19:10:15.828Z,59.70
2019-03-24T19:12:44.364Z,59.70
2019-03-24T19:15:15.020Z,59.90
2019-03-24T19:17:43.780Z,60.70
2019-03-24T19:20:12.735Z,60.80
2019-03-24T19:22:41.421Z,61.10
2019-03-24T19:25:10.307Z,61.60
2019-03-24T19:27:41.943Z,61.60
2019-03-24T19:30:27.898Z,62.00
2019-03-24T19:32:56.512Z,62.70
2019-03-24T19:35:24.973Z,62.10
2019-03-24T19:37:55.191Z,62.20
2019-03-24T19:40:31.378Z,62.30
2019-03-24T19:43:02.919Z,62.80
2019-03-24T19:45:31.636Z,63.20
2019-03-24T19:48:01.276Z,63.50
2019-03-24T19:50:29.792Z,63.90
2019-03-24T19:52:58.367Z,64.70
2019-03-24T19:55:30.109Z,65.10
2019-03-24T19:57:58.717Z,65.50
2019-03-24T20:00:27.638Z,65.70
2019-03-24T20:02:57.218Z,65.80
2019-03-24T20:05:26.939Z,65.70
2019-03-24T20:07:56.148Z,65.80
2019-03-24T20:10:26.367Z,65.90
2019-03-24T20:12:56.450Z,65.90
2019-03-24T20:15:25.257Z,66.00
2019-03-24T20:17:56.890Z,66.50
2019-03-24T20:20:27.111Z,66.40
2019-03-24T20:22:57.091Z,66.80
2019-03-24T20:25:25.919Z,66.60
2019-03-24T20:27:56.941Z,67.00
2019-03-24T20:30:27.694Z,67.30
2019-03-24T20:32:59.225Z,67.00
2019-03-24T20:35:29.313Z,67.20
2019-03-24T20:37:58.120Z,67.50
2019-03-24T20:40:26.723Z,67.80
2019-03-24T20:42:55.370Z,67.70
2019-03-24T20:45:23.969Z,67.60
2019-03-24T20:47:54.022Z,67.80
2019-03-24T20:50:22.616Z,67.80
2019-03-24T20:52:51.265Z,67.80
2019-03-24T20:55:19.823Z,67.90
2019-03-24T20:57:51.385Z,67.90
2019-03-24T21:00:34.134Z,67.90
2019-03-24T21:03:03.496Z,67.90
2019-03-24T21:05:32.912Z,67.90
2019-03-24T21:08:02.316Z,68.00
2019-03-24T21:10:30.914Z,68.10
2019-03-24T21:13:00.485Z,68.40
2019-03-24T21:15:30.966Z,68.50
2019-03-24T21:18:00.041Z,68.60
2019-03-24T21:20:28.714Z,68.70
2019-03-24T21:22:58.925Z,68.90
2019-03-24T21:25:27.638Z,69.00
2019-03-24T21:27:56.471Z,69.00
2019-03-24T21:30:40.420Z,69.90
2019-03-24T21:33:09.072Z,68.90
2019-03-24T21:35:37.785Z,69.10
2019-03-24T21:38:06.566Z,69.00
2019-03-24T21:40:35.143Z,69.10
2019-03-24T21:43:06.426Z,69.10
2019-03-24T21:45:34.883Z,69.10
2019-03-24T21:48:03.515Z,69.40
2019-03-24T21:50:32.283Z,69.40
2019-03-24T21:53:00.949Z,69.40
2019-03-24T21:55:32.637Z,69.20
2019-03-24T21:58:01.147Z,69.40
2019-03-24T22:00:32.453Z,69.40
2019-03-24T22:03:01.002Z,69.50
2019-03-24T22:05:29.602Z,69.50
2019-03-24T22:07:58.083Z,69.30
2019-03-24T22:10:26.615Z,69.40
2019-03-24T22:12:55.070Z,69.70
2019-03-24T22:15:24.392Z,69.40
2019-03-24T22:17:52.866Z,69.40
2019-03-24T22:20:26.114Z,69.50
2019-03-24T22:22:54.586Z,69.80
2019-03-24T22:25:24.563Z,69.90
2019-03-24T22:27:53.108Z,69.60
2019-03-24T22:30:23.038Z,69.60
2019-03-24T22:32:51.564Z,69.60
2019-03-24T22:35:22.122Z,69.80
2019-03-24T22:37:53.277Z,69.80
2019-03-24T22:40:21.847Z,69.90
2019-03-24T22:42:50.379Z,69.80
2019-03-24T22:45:20.037Z,70.10
2019-03-24T22:47:48.634Z,70.10
2019-03-24T22:50:17.219Z,70.20
2019-03-24T22:52:45.661Z,70.20
2019-03-24T22:55:15.086Z,70.10
2019-03-24T22:57:45.496Z,70.10
2019-03-24T23:00:16.874Z,71.10
2019-03-24T23:02:50.576Z,70.20
2019-03-24T23:05:16.383Z,70.30
2019-03-24T23:07:46.927Z,70.00
2019-03-24T23:10:15.598Z,70.00
2019-03-24T23:12:45.090Z,70.10
2019-03-24T23:15:14.656Z,70.10
2019-03-24T23:17:43.274Z,70.10
2019-03-24T23:20:14.439Z,70.00
2019-03-24T23:22:44.430Z,69.90
2019-03-24T23:25:13.753Z,69.90
2019-03-24T23:27:42.337Z,69.90
2019-03-24T23:30:11.781Z,70.80
2019-03-24T23:32:40.352Z,69.80
2019-03-24T23:35:09.225Z,69.70
2019-03-24T23:37:38.133Z,69.90
2019-03-24T23:40:07.461Z,69.70
2019-03-24T23:42:36.398Z,70.50
2019-03-24T23:45:08.053Z,69.70
2019-03-24T23:47:36.522Z,69.70
2019-03-24T23:50:07.829Z,69.70
2019-03-24T23:52:37.312Z,69.70
2019-03-24T23:55:06.352Z,70.00
2019-03-24T23:57:35.953Z,70.00
